Time;durP1;ratioP1;P1;durP2;ratioP2;P2;SDS_P1;SDS_P2;PMS_P1;PMS_P2;Temp;Humidity;BMP_temperature;BMP_pressure;BME280_temperature;BME280_humidity;BME280_pressure;Samples;Min_cycle;Max_cycle;Signal;HPM_P1;HPM_P2
2021/01/07 00:01:04;;;;;;;8.40;5.55;;;1.60;97.10;;;;;;5122129;27;27963;-61
2021/01/07 00:03:49;;;;;;;9.68;6.25;;;1.60;96.80;;;;;;5125346;27;27452;-61
2021/01/07 00:06:34;;;;;;;12.25;6.07;;;1.60;96.80;;;;;;5125673;27;27416;-61
2021/01/07 00:09:19;;;;;;;7.82;5.57;;;1.60;96.80;;;;;;5125231;27;27404;-61
2021/01/07 00:12:03;;;;;;;7.85;5.38;;;1.60;96.80;;;;;;5125424;27;27488;-61
2021/01/07 00:14:48;;;;;;;8.32;5.35;;;1.60;96.80;;;;;;5123726;27;27476;-61
2021/01/07 00:17:33;;;;;;;7.25;5.57;;;1.60;96.80;;;;;;5125562;27;27414;-59
2021/01/07 00:20:17;;;;;;;9.48;5.43;;;1.60;96.80;;;;;;5125420;27;27466;-61
2021/01/07 00:23:02;;;;;;;8.27;5.70;;;1.60;96.80;;;;;;5121246;27;27868;-61
2021/01/07 00:25:48;;;;;;;9.85;5.75;;;1.60;96.80;;;;;;5125388;27;27635;-60
2021/01/07 00:28:33;;;;;;;7.15;5.10;;;1.60;96.80;;;;;;5125105;27;26914;-61
2021/01/07 00:31:17;;;;;;;6.55;5.43;;;1.60;96.80;;;;;;5121918;27;27443;-61
2021/01/07 00:34:02;;;;;;;10.80;5.50;;;1.60;96.80;;;;;;5124897;27;27411;-60
2021/01/07 00:36:53;;;;;;;8.27;5.82;;;1.60;96.80;;;;;;5124384;27;27439;-61
2021/01/07 00:39:38;;;;;;;6.97;5.20;;;1.60;96.80;;;;;;5124451;27;27393;-60
2021/01/07 00:42:22;;;;;;;5.97;4.65;;;1.60;96.80;;;;;;5120497;27;27422;-60
2021/01/07 00:45:08;;;;;;;7.95;5.00;;;1.60;96.80;;;;;;5121528;27;27343;-61
2021/01/07 00:47:52;;;;;;;7.45;5.18;;;1.60;96.80;;;;;;5124313;27;27412;-60
2021/01/07 00:50:39;;;;;;;7.30;4.82;;;1.60;96.80;;;;;;5121735;27;27324;-61
2021/01/07 00:53:24;;;;;;;6.95;4.90;;;1.60;96.80;;;;;;5120966;27;27322;-57
2021/01/07 00:56:09;;;;;;;7.25;4.90;;;1.60;96.80;;;;;;5121321;27;27941;-59
2021/01/07 00:58:58;;;;;;;6.13;4.13;;;1.60;96.80;;;;;;5120827;27;27448;-61
2021/01/07 01:01:51;;;;;;;7.40;4.55;;;1.60;96.80;;;;;;5124449;27;27415;-61
2021/01/07 01:04:36;;;;;;;6.38;4.75;;;1.60;96.80;;;;;;5123854;27;27338;-61
2021/01/07 01:07:20;;;;;;;7.75;4.68;;;1.60;96.80;;;;;;5124231;27;27407;-61
2021/01/07 01:10:09;;;;;;;7.25;4.47;;;1.60;96.80;;;;;;5124470;27;27315;-61
2021/01/07 01:12:54;;;;;;;7.55;4.93;;;1.60;96.80;;;;;;5124505;27;27452;-61
2021/01/07 01:15:39;;;;;;;6.07;4.22;;;1.60;96.80;;;;;;5124457;27;27449;-61
2021/01/07 01:18:23;;;;;;;6.28;3.95;;;1.60;96.80;;;;;;5123708;27;27472;-60
2021/01/07 01:21:07;;;;;;;5.45;3.83;;;1.60;96.80;;;;;;5123748;27;27456;-61
2021/01/07 01:23:52;;;;;;;5.80;4.38;;;1.60;96.80;;;;;;5124685;27;27480;-61
2021/01/07 01:26:37;;;;;;;6.60;4.25;;;1.60;96.80;;;;;;5124286;27;27419;-61
2021/01/07 01:29:22;;;;;;;6.55;4.43;;;1.60;96.80;;;;;;5124217;27;27971;-61
2021/01/07 01:32:06;;;;;;;8.10;4.55;;;1.60;96.80;;;;;;5124558;27;27355;-61
2021/01/07 01:34:50;;;;;;;7.43;3.95;;;1.60;96.80;;;;;;5123958;27;27331;-60
2021/01/07 01:37:38;;;;;;;7.57;4.57;;;1.60;96.80;;;;;;5124123;27;27384;-60
2021/01/07 01:40:23;;;;;;;5.95;4.25;;;1.60;96.80;;;;;;5128089;27;27492;-60
2021/01/07 01:43:08;;;;;;;7.63;4.72;;;1.60;96.80;;;;;;5127542;27;27468;-60
2021/01/07 01:45:52;;;;;;;5.30;3.85;;;1.60;96.80;;;;;;5127650;27;27480;-60
2021/01/07 01:48:38;;;;;;;5.30;3.83;;;1.60;96.90;;;;;;5127592;27;27414;-60
2021/01/07 01:51:23;;;;;;;7.72;4.63;;;1.60;96.80;;;;;;5126788;27;27906;-60
2021/01/07 01:54:07;;;;;;;5.35;3.80;;;1.60;96.80;;;;;;5126679;27;27484;-61
2021/01/07 01:56:52;;;;;;;5.55;4.25;;;1.60;96.80;;;;;;5127466;27;27331;-61
2021/01/07 01:59:37;;;;;;;5.18;4.00;;;1.60;97.20;;;;;;5112459;27;27437;-61
2021/01/07 02:02:21;;;;;;;4.75;3.83;;;1.60;96.80;;;;;;5126027;27;27449;-61
2021/01/07 02:05:07;;;;;;;5.45;4.13;;;1.60;96.80;;;;;;5127558;27;27475;-58
2021/01/07 02:07:52;;;;;;;4.50;3.72;;;1.60;96.80;;;;;;5127206;27;27389;-61
2021/01/07 02:10:36;;;;;;;6.93;3.97;;;1.60;96.80;;;;;;5127253;27;26932;-61
2021/01/07 02:13:21;;;;;;;5.25;3.38;;;1.60;96.80;;;;;;5127343;27;27387;-60
2021/01/07 02:16:06;;;;;;;6.68;4.45;;;1.60;96.80;;;;;;5126362;27;27421;-61
2021/01/07 02:18:55;;;;;;;5.78;3.78;;;1.60;96.80;;;;;;5127123;27;27339;-61
2021/01/07 02:21:39;;;;;;;7.35;4.40;;;1.60;96.80;;;;;;5127130;27;27451;-61
2021/01/07 02:24:24;;;;;;;5.78;4.38;;;1.60;96.80;;;;;;5126939;27;27460;-61
2021/01/07 02:27:09;;;;;;;6.22;4.70;;;1.60;96.80;;;;;;5127166;27;27405;-61
2021/01/07 02:29:54;;;;;;;6.97;3.78;;;1.60;96.80;;;;;;5126830;27;27421;-61
2021/01/07 02:32:39;;;;;;;5.65;4.18;;;1.60;96.80;;;;;;5126883;27;27392;-61
2021/01/07 02:35:23;;;;;;;5.47;4.13;;;1.60;96.80;;;;;;5122742;27;27410;-61
2021/01/07 02:38:08;;;;;;;6.00;4.03;;;1.60;96.80;;;;;;5126160;27;27600;-61
2021/01/07 02:40:52;;;;;;;6.82;4.22;;;1.60;96.80;;;;;;5126892;27;27455;-60
2021/01/07 02:43:39;;;;;;;4.72;3.70;;;1.60;96.80;;;;;;5126965;27;27366;-61
2021/01/07 02:46:24;;;;;;;7.43;4.80;;;1.60;96.80;;;;;;5126850;27;27456;-61
2021/01/07 02:49:08;;;;;;;6.57;3.95;;;1.60;96.80;;;;;;5125603;27;27414;-61
2021/01/07 02:51:53;;;;;;;5.65;3.95;;;1.60;96.80;;;;;;5127081;27;27453;-61
2021/01/07 02:54:37;;;;;;;6.72;4.25;;;1.50;96.80;;;;;;5126753;27;27425;-61
2021/01/07 02:57:22;;;;;;;6.47;4.40;;;1.60;96.80;;;;;;5126090;27;27430;-61
2021/01/07 03:00:07;;;;;;;6.38;3.85;;;1.60;96.80;;;;;;5126657;27;27372;-61
2021/01/07 03:02:51;;;;;;;6.75;4.13;;;1.60;96.80;;;;;;5126410;27;27369;-61
2021/01/07 03:05:35;;;;;;;6.38;4.35;;;1.60;96.80;;;;;;5126625;27;27377;-61
2021/01/07 03:08:20;;;;;;;7.95;4.35;;;1.60;96.80;;;;;;5125758;27;27412;-61
2021/01/07 03:11:04;;;;;;;6.90;4.72;;;1.60;96.80;;;;;;5126180;27;27398;-61
2021/01/07 03:13:49;;;;;;;8.18;4.53;;;1.50;96.80;;;;;;5126219;27;27390;-60
2021/01/07 03:16:33;;;;;;;7.70;4.30;;;1.60;96.80;;;;;;5126190;27;27310;-58
2021/01/07 03:19:18;;;;;;;5.75;4.15;;;1.60;96.80;;;;;;5126371;27;27397;-61
2021/01/07 03:22:02;;;;;;;8.60;4.22;;;1.60;96.80;;;;;;5125795;27;27389;-61
2021/01/07 03:24:47;;;;;;;6.20;3.95;;;1.60;96.80;;;;;;5125748;27;27375;-61
2021/01/07 03:27:31;;;;;;;7.57;4.32;;;1.60;96.80;;;;;;5126435;27;27445;-61
2021/01/07 03:30:16;;;;;;;7.45;4.38;;;1.60;96.80;;;;;;5126373;27;27437;-60
2021/01/07 03:33:01;;;;;;;6.20;4.70;;;1.60;96.80;;;;;;5126138;27;27430;-61
2021/01/07 03:35:46;;;;;;;6.93;4.18;;;1.60;96.80;;;;;;5125842;27;27481;-61
2021/01/07 03:38:30;;;;;;;8.85;4.70;;;1.50;96.80;;;;;;5126097;27;27414;-60
2021/01/07 03:41:14;;;;;;;7.35;4.20;;;1.50;96.80;;;;;;5125597;27;27520;-61
2021/01/07 03:43:59;;;;;;;6.35;4.57;;;1.50;96.80;;;;;;5126001;27;27457;-61
2021/01/07 03:46:44;;;;;;;6.95;4.38;;;1.60;96.80;;;;;;5121725;27;27441;-60
2021/01/07 03:49:28;;;;;;;6.53;4.88;;;1.60;96.80;;;;;;5125908;27;27453;-60
2021/01/07 03:52:13;;;;;;;6.63;4.20;;;1.50;96.80;;;;;;5125194;27;27578;-60
2021/01/07 03:54:57;;;;;;;5.55;4.22;;;1.60;96.80;;;;;;5125520;27;27488;-59
2021/01/07 03:57:42;;;;;;;7.03;4.72;;;1.50;96.80;;;;;;5125605;27;27455;-60
2021/01/07 04:00:26;;;;;;;6.97;4.35;;;1.50;96.80;;;;;;5125333;27;27327;-60
2021/01/07 04:03:11;;;;;;;6.47;4.22;;;1.50;96.80;;;;;;5125853;27;27344;-60
2021/01/07 04:05:56;;;;;;;6.65;4.53;;;1.50;96.80;;;;;;5125483;27;27428;-60
2021/01/07 04:08:43;;;;;;;6.97;4.88;;;1.50;96.80;;;;;;5125362;27;26967;-60
2021/01/07 04:11:27;;;;;;;6.03;4.28;;;1.50;96.80;;;;;;5125314;27;27482;-60
2021/01/07 04:14:12;;;;;;;7.38;4.43;;;1.50;96.80;;;;;;5125277;27;27432;-60
2021/01/07 04:16:56;;;;;;;8.05;5.22;;;1.50;96.80;;;;;;5125520;27;27511;-60
2021/01/07 04:19:44;;;;;;;6.18;4.28;;;1.50;96.80;;;;;;5124935;27;27359;-60
2021/01/07 04:22:28;;;;;;;7.15;4.75;;;1.50;96.80;;;;;;5125134;27;27405;-60
2021/01/07 04:25:12;;;;;;;7.10;4.97;;;1.50;96.80;;;;;;5125406;27;27426;-60
2021/01/07 04:27:57;;;;;;;7.75;5.18;;;1.50;96.80;;;;;;5125307;27;27482;-60
2021/01/07 04:30:41;;;;;;;7.97;5.60;;;1.50;96.80;;;;;;5125141;27;27344;-61
2021/01/07 04:33:26;;;;;;;8.68;4.70;;;1.50;96.80;;;;;;5125080;27;27418;-60
2021/01/07 04:36:10;;;;;;;6.82;4.53;;;1.50;96.80;;;;;;5120482;27;27377;-60
2021/01/07 04:38:55;;;;;;;10.75;5.20;;;1.60;96.80;;;;;;5124898;27;27370;-61
2021/01/07 04:41:39;;;;;;;7.45;4.85;;;1.50;96.80;;;;;;5125278;27;27395;-60
2021/01/07 04:44:23;;;;;;;6.78;4.30;;;1.50;96.80;;;;;;5124386;27;27390;-60
2021/01/07 04:47:08;;;;;;;6.72;4.63;;;1.50;96.80;;;;;;5124081;27;27375;-60
2021/01/07 04:49:53;;;;;;;8.13;5.32;;;1.50;96.80;;;;;;5124339;27;27340;-60
2021/01/07 04:52:38;;;;;;;8.70;5.53;;;1.50;96.80;;;;;;5124070;27;27416;-60
2021/01/07 04:55:23;;;;;;;6.35;4.88;;;1.50;96.80;;;;;;5124730;27;27317;-60
2021/01/07 04:58:07;;;;;;;8.10;4.82;;;1.50;96.80;;;;;;5123916;27;27408;-60
2021/01/07 05:00:52;;;;;;;5.57;4.40;;;1.50;96.80;;;;;;5124836;27;27365;-59
2021/01/07 05:03:36;;;;;;;7.82;5.30;;;1.50;96.80;;;;;;5124012;27;27456;-60
2021/01/07 05:06:25;;;;;;;8.07;5.40;;;1.50;96.80;;;;;;5124854;27;27399;-60
2021/01/07 05:09:10;;;;;;;8.10;5.32;;;1.50;96.80;;;;;;5121180;27;27358;-60
2021/01/07 05:11:54;;;;;;;7.55;4.43;;;1.50;96.80;;;;;;5124738;27;27377;-59
2021/01/07 05:14:45;;;;;;;7.03;4.72;;;1.50;96.80;;;;;;5127257;27;27350;-60
2021/01/07 05:17:30;;;;;;;6.35;4.75;;;1.50;96.80;;;;;;5128180;27;27460;-60
2021/01/07 05:20:15;;;;;;;8.02;5.32;;;1.50;96.80;;;;;;5127980;27;27490;-61
2021/01/07 05:23:00;;;;;;;8.57;5.90;;;1.60;96.80;;;;;;5128290;27;27406;-60
2021/01/07 05:25:45;;;;;;;9.45;5.75;;;1.50;96.80;;;;;;5127992;27;26845;-60
2021/01/07 05:28:29;;;;;;;8.85;5.20;;;1.50;97.20;;;;;;5128197;27;27439;-60
2021/01/07 05:31:17;;;;;;;8.23;5.60;;;1.50;96.80;;;;;;5128263;27;27945;-60
2021/01/07 05:34:02;;;;;;;8.23;5.47;;;1.50;96.80;;;;;;5127836;27;27452;-60
2021/01/07 05:36:46;;;;;;;6.90;5.15;;;1.50;96.80;;;;;;5127576;27;27485;-59
2021/01/07 05:39:34;;;;;;;8.13;5.57;;;1.50;96.80;;;;;;5128035;27;27363;-59
2021/01/07 05:42:19;;;;;;;7.68;5.10;;;1.50;96.80;;;;;;5127241;27;27999;-59
2021/01/07 05:45:11;;;;;;;9.20;5.75;;;1.50;96.80;;;;;;5127119;27;27393;-60
2021/01/07 05:47:56;;;;;;;8.38;6.00;;;1.50;96.80;;;;;;5127573;27;26931;-60
2021/01/07 05:50:40;;;;;;;7.68;5.22;;;1.50;96.80;;;;;;5112564;27;27430;-60
2021/01/07 05:53:25;;;;;;;9.18;5.88;;;1.50;96.80;;;;;;5127923;27;27883;-60
2021/01/07 05:56:09;;;;;;;11.35;5.50;;;1.50;96.80;;;;;;5126637;27;27484;-54
2021/01/07 05:58:54;;;;;;;9.63;6.15;;;1.50;96.80;;;;;;5112232;27;27451;-59
2021/01/07 06:01:39;;;;;;;9.10;6.40;;;1.50;96.80;;;;;;5123895;27;27476;-59
2021/01/07 06:04:24;;;;;;;9.75;5.65;;;1.50;96.80;;;;;;5126828;27;27438;-60
2021/01/07 06:07:10;;;;;;;7.45;5.57;;;1.50;96.80;;;;;;5112070;27;27552;-60
2021/01/07 06:09:55;;;;;;;10.70;6.47;;;1.50;96.80;;;;;;5127038;27;27437;-60
2021/01/07 06:12:39;;;;;;;11.10;7.00;;;1.50;96.80;;;;;;5127451;27;27406;-54
2021/01/07 06:15:24;;;;;;;10.85;7.10;;;1.50;96.80;;;;;;5127041;27;27424;-59
2021/01/07 06:18:08;;;;;;;14.02;7.50;;;1.50;96.80;;;;;;5126580;27;27434;-60
2021/01/07 06:21:00;;;;;;;10.80;7.15;;;1.50;96.80;;;;;;5126612;27;27461;-59
2021/01/07 06:23:45;;;;;;;13.52;7.82;;;1.50;96.80;;;;;;5127104;27;27369;-58
2021/01/07 06:26:30;;;;;;;11.60;7.10;;;1.50;96.80;;;;;;5127156;27;27849;-59
2021/01/07 06:29:14;;;;;;;12.90;7.50;;;1.40;96.80;;;;;;5127269;27;27363;-60
2021/01/07 06:32:00;;;;;;;10.02;6.72;;;1.50;96.80;;;;;;5127226;27;27355;-59
2021/01/07 06:34:46;;;;;;;11.93;7.65;;;1.50;96.80;;;;;;5126125;27;27308;-59
2021/01/07 06:37:31;;;;;;;14.73;8.00;;;1.50;96.80;;;;;;5126027;27;27324;-59
2021/01/07 06:40:17;;;;;;;12.60;7.45;;;1.40;96.90;;;;;;5127003;27;27516;-60
2021/01/07 06:43:09;;;;;;;12.75;7.32;;;1.50;97.00;;;;;;5126837;27;27379;-59
2021/01/07 06:45:55;;;;;;;12.02;7.88;;;1.50;97.00;;;;;;5111996;27;27351;-60
2021/01/07 06:48:44;;;;;;;11.68;7.63;;;1.50;97.00;;;;;;5126781;27;27349;-60
2021/01/07 06:51:29;;;;;;;13.32;7.82;;;1.50;97.00;;;;;;5125939;27;27414;-60
2021/01/07 06:54:13;;;;;;;10.55;7.03;;;1.50;97.00;;;;;;5123511;27;27391;-60
2021/01/07 06:56:58;;;;;;;11.35;6.93;;;1.50;97.00;;;;;;5125933;27;27465;-58
2021/01/07 07:00:00;;;;;;;10.57;7.45;;;1.50;96.90;;;;;;5126394;27;27468;-59
2021/01/07 07:03:01;;;;;;;12.15;6.88;;;1.50;96.90;;;;;;5126059;27;27404;-60
2021/01/07 07:05:53;;;;;;;13.25;7.20;;;1.50;96.90;;;;;;5126434;27;27476;-60
2021/01/07 07:08:37;;;;;;;11.60;6.95;;;1.50;96.90;;;;;;5125534;27;27429;-60
2021/01/07 07:11:35;;;;;;;11.80;7.30;;;1.50;96.80;;;;;;5125670;27;27962;-59
2021/01/07 07:14:20;;;;;;;11.07;7.70;;;1.50;96.80;;;;;;5126461;27;27476;-60
2021/01/07 07:17:07;;;;;;;11.75;7.53;;;1.50;96.80;;;;;;5126457;27;27468;-59
2021/01/07 07:19:53;;;;;;;12.00;7.50;;;1.50;96.80;;;;;;5126323;27;27402;-59
2021/01/07 07:22:43;;;;;;;13.90;7.88;;;1.50;96.80;;;;;;5121942;27;27432;-60
2021/01/07 07:25:28;;;;;;;12.48;7.80;;;1.60;96.80;;;;;;5125983;27;27476;-59
2021/01/07 07:28:13;;;;;;;11.38;6.95;;;1.60;96.80;;;;;;5126073;27;27471;-59
2021/01/07 07:30:57;;;;;;;11.63;7.55;;;1.60;96.70;;;;;;5110935;27;27639;-60
2021/01/07 07:33:41;;;;;;;11.27;7.32;;;1.60;96.70;;;;;;5125439;27;27836;-58
2021/01/07 07:36:30;;;;;;;12.30;7.57;;;1.60;96.70;;;;;;5124496;27;27415;-59
2021/01/07 07:39:16;;;;;;;14.00;8.90;;;1.50;96.70;;;;;;5126122;27;27472;-59
2021/01/07 07:42:08;;;;;;;14.63;9.23;;;1.60;96.70;;;;;;5125619;27;27559;-59
2021/01/07 07:44:53;;;;;;;12.15;7.75;;;1.50;96.70;;;;;;5126049;27;27426;-60
2021/01/07 07:47:37;;;;;;;16.13;8.75;;;1.50;96.70;;;;;;5125879;27;27472;-59
2021/01/07 07:50:27;;;;;;;15.15;8.90;;;1.50;96.70;;;;;;5125727;27;27416;-60
2021/01/07 07:53:13;;;;;;;13.57;8.60;;;1.60;96.80;;;;;;5125611;27;27476;-60
2021/01/07 07:55:57;;;;;;;14.73;8.65;;;1.50;96.80;;;;;;5121376;27;27393;-59
2021/01/07 07:58:42;;;;;;;13.65;7.72;;;1.50;96.80;;;;;;5125455;27;27464;-59
2021/01/07 08:01:43;;;;;;;13.07;8.27;;;1.50;96.80;;;;;;5125171;27;27419;-59
2021/01/07 08:04:28;;;;;;;13.50;8.25;;;1.50;96.80;;;;;;5125436;27;27480;-60
2021/01/07 08:07:14;;;;;;;15.60;9.32;;;1.50;97.20;;;;;;5125307;27;27484;-60
2021/01/07 08:10:08;;;;;;;12.68;7.85;;;1.50;96.80;;;;;;5125538;27;27461;-59
2021/01/07 08:12:53;;;;;;;13.05;8.38;;;1.50;97.10;;;;;;5122014;27;27460;-59
2021/01/07 08:15:38;;;;;;;14.13;8.75;;;1.60;96.80;;;;;;5125216;27;27405;-55
2021/01/07 08:18:24;;;;;;;14.70;7.63;;;1.60;96.80;;;;;;5125416;27;27490;-60
2021/01/07 08:21:09;;;;;;;14.27;8.48;;;1.60;96.80;;;;;;5122033;27;27497;-60
2021/01/07 08:23:55;;;;;;;13.73;8.13;;;1.60;96.70;;;;;;5125352;27;27456;-60
2021/01/07 08:26:40;;;;;;;12.77;8.05;;;1.60;96.70;;;;;;5109993;27;27467;-60
2021/01/07 08:29:25;;;;;;;14.13;8.20;;;1.60;96.70;;;;;;5124473;27;27414;-60
2021/01/07 08:32:10;;;;;;;13.38;8.77;;;1.70;96.70;;;;;;5124534;27;27446;-60
2021/01/07 08:34:55;;;;;;;12.48;7.45;;;1.70;96.70;;;;;;5125335;27;27426;-60
2021/01/07 08:37:42;;;;;;;12.45;7.50;;;1.70;96.70;;;;;;5124357;27;27589;-59
2021/01/07 08:40:26;;;;;;;12.65;8.20;;;1.70;96.70;;;;;;5124934;27;27475;-53
2021/01/07 08:43:12;;;;;;;13.63;8.00;;;1.70;96.60;;;;;;5121086;27;27429;-60
2021/01/07 08:45:57;;;;;;;12.93;7.93;;;1.70;96.60;;;;;;5124837;27;27380;-60
2021/01/07 08:48:43;;;;;;;14.43;8.48;;;1.70;96.60;;;;;;5127666;27;27473;-59
2021/01/07 08:51:27;;;;;;;11.25;7.15;;;1.70;96.60;;;;;;5128714;27;27412;-59
2021/01/07 08:54:16;;;;;;;12.27;7.95;;;1.70;96.60;;;;;;5128634;27;27447;-59
2021/01/07 08:57:10;;;;;;;16.17;8.48;;;1.70;96.60;;;;;;5128471;27;27382;-60
2021/01/07 08:59:55;;;;;;;15.93;9.30;;;1.70;96.60;;;;;;5128704;27;27324;-59
2021/01/07 09:02:39;;;;;;;12.73;8.43;;;1.80;96.60;;;;;;5127275;27;27408;-59
2021/01/07 09:05:24;;;;;;;15.85;9.07;;;1.80;96.60;;;;;;5128471;27;27364;-52
2021/01/07 09:08:12;;;;;;;15.20;9.18;;;1.80;96.60;;;;;;5124947;27;27366;-60
2021/01/07 09:11:05;;;;;;;14.45;8.25;;;1.80;96.60;;;;;;5125188;27;27373;-60
2021/01/07 09:14:02;;;;;;;15.20;8.50;;;1.80;96.60;;;;;;5128407;27;27865;-60
2021/01/07 09:16:58;;;;;;;11.15;8.23;;;1.80;96.50;;;;;;5128066;27;27469;-57
2021/01/07 09:19:42;;;;;;;13.93;8.90;;;1.80;96.50;;;;;;5128389;27;27346;-59
2021/01/07 09:22:27;;;;;;;18.85;8.60;;;1.90;96.50;;;;;;5127475;27;27657;-59
2021/01/07 09:25:19;;;;;;;13.25;8.68;;;1.90;96.50;;;;;;5128280;27;27409;-59
2021/01/07 09:28:04;;;;;;;15.98;9.70;;;1.90;96.50;;;;;;5127968;27;27404;-59
2021/01/07 09:30:48;;;;;;;15.80;8.70;;;1.90;96.50;;;;;;5128271;27;27369;-60
2021/01/07 09:33:33;;;;;;;13.50;8.50;;;1.90;96.50;;;;;;5128110;27;27401;-52
2021/01/07 09:36:17;;;;;;;14.35;9.55;;;1.90;96.50;;;;;;5127212;27;27403;-60
2021/01/07 09:39:01;;;;;;;14.02;8.75;;;1.90;96.60;;;;;;5127905;27;27394;-60
2021/01/07 09:41:46;;;;;;;16.10;10.40;;;1.90;96.60;;;;;;5127786;27;27471;-59
2021/01/07 09:44:31;;;;;;;15.93;8.88;;;1.90;96.60;;;;;;5127603;27;27421;-59
2021/01/07 09:47:16;;;;;;;15.68;10.77;;;1.90;96.70;;;;;;5126735;27;27522;-60
2021/01/07 09:50:01;;;;;;;19.23;11.20;;;1.90;96.80;;;;;;5127200;27;27657;-56
2021/01/07 09:52:45;;;;;;;16.75;9.80;;;1.90;96.80;;;;;;5127893;27;27410;-60
2021/01/07 09:55:30;;;;;;;16.77;10.88;;;1.90;96.80;;;;;;5127527;27;27407;-59
2021/01/07 09:58:15;;;;;;;18.23;11.30;;;1.90;96.80;;;;;;5127155;27;27456;-60
2021/01/07 10:01:00;;;;;;;19.20;11.95;;;1.90;96.80;;;;;;5127270;27;27520;-59
2021/01/07 10:03:45;;;;;;;18.17;11.23;;;2.00;96.90;;;;;;5127398;27;27503;-59
2021/01/07 10:06:30;;;;;;;17.13;10.93;;;2.00;96.90;;;;;;5127568;27;27488;-59
2021/01/07 10:09:15;;;;;;;19.77;11.30;;;2.00;96.90;;;;;;5127194;27;27434;-59
2021/01/07 10:12:00;;;;;;;16.58;10.90;;;2.00;97.00;;;;;;5127130;27;27429;-60
2021/01/07 10:14:45;;;;;;;19.17;10.93;;;2.00;97.00;;;;;;5126473;27;27472;-57
2021/01/07 10:17:29;;;;;;;18.63;11.65;;;2.00;97.00;;;;;;5123750;27;27355;-60
2021/01/07 10:20:14;;;;;;;21.35;11.25;;;2.10;96.90;;;;;;5127105;27;27471;-60
2021/01/07 10:23:03;;;;;;;18.67;11.85;;;2.10;96.90;;;;;;5126733;27;27482;-60
2021/01/07 10:25:48;;;;;;;16.98;10.70;;;2.10;96.90;;;;;;5126688;27;27420;-57
2021/01/07 10:28:40;;;;;;;19.92;11.68;;;2.10;96.90;;;;;;5111847;27;27404;-52
2021/01/07 10:31:26;;;;;;;17.98;10.88;;;2.20;96.90;;;;;;5099394;27;27429;-58
2021/01/07 10:34:10;;;;;;;15.45;10.23;;;2.20;96.90;;;;;;5126069;27;27494;-58
2021/01/07 10:36:55;;;;;;;19.90;11.85;;;2.20;96.80;;;;;;5125531;27;27448;-59
2021/01/07 10:39:41;;;;;;;20.27;11.90;;;2.30;96.70;;;;;;5125750;27;27437;-58
2021/01/07 10:42:26;;;;;;;21.63;11.50;;;2.30;96.60;;;;;;5122426;27;27461;-59
2021/01/07 10:45:11;;;;;;;16.50;10.30;;;2.30;96.50;;;;;;5126299;27;27419;-59
2021/01/07 10:47:58;;;;;;;17.23;10.70;;;2.40;96.50;;;;;;5123603;27;27391;-59
2021/01/07 10:50:43;;;;;;;16.33;11.32;;;2.40;96.40;;;;;;5126678;27;27445;-57
2021/01/07 10:53:36;;;;;;;17.50;11.13;;;2.40;96.30;;;;;;5125843;27;27876;-57
2021/01/07 10:56:25;;;;;;;18.67;10.70;;;2.40;96.30;;;;;;5126000;27;27484;-59
2021/01/07 10:59:32;;;;;;;16.58;10.18;;;2.50;96.20;;;;;;5126643;27;27382;-59
2021/01/07 11:02:28;;;;;;;16.08;10.15;;;2.50;96.10;;;;;;5126227;27;27343;-59
2021/01/07 11:05:13;;;;;;;15.43;10.02;;;2.50;96.20;;;;;;5125527;27;27511;-55
2021/01/07 11:08:14;;;;;;;17.80;10.30;;;2.50;96.10;;;;;;5125751;27;27500;-58
2021/01/07 11:10:59;;;;;;;17.92;10.73;;;2.60;96.10;;;;;;5124939;27;27409;-58
2021/01/07 11:13:45;;;;;;;17.25;11.77;;;2.60;96.00;;;;;;5122817;27;27312;-57
2021/01/07 11:17:03;;;;;;;18.15;10.93;;;2.60;96.00;;;;;;5125990;27;27334;-59
2021/01/07 11:19:50;;;;;;;18.35;10.52;;;2.60;95.90;;;;;;5125840;27;27424;-59
2021/01/07 11:22:35;;;;;;;19.80;10.93;;;2.60;95.90;;;;;;5125871;27;27484;-58
2021/01/07 11:25:20;;;;;;;19.77;10.48;;;2.60;95.90;;;;;;5125993;27;27460;-59
2021/01/07 11:28:05;;;;;;;15.65;10.25;;;2.60;95.90;;;;;;5126268;27;27446;-59
2021/01/07 11:30:50;;;;;;;17.27;11.25;;;2.70;95.90;;;;;;5126037;27;27441;-57
2021/01/07 11:33:34;;;;;;;18.13;10.75;;;2.70;95.80;;;;;;5125951;27;27397;-58
2021/01/07 11:36:21;;;;;;;18.90;11.27;;;2.70;95.80;;;;;;5125320;27;27466;-54
2021/01/07 11:39:06;;;;;;;18.75;11.90;;;2.70;95.80;;;;;;5125167;27;27844;-52
2021/01/07 11:42:10;;;;;;;19.50;12.90;;;2.70;95.90;;;;;;5125412;27;27410;-57
2021/01/07 11:45:05;;;;;;;17.95;11.63;;;2.70;96.00;;;;;;5121585;27;27426;-59
2021/01/07 11:47:53;;;;;;;20.27;12.38;;;2.70;96.00;;;;;;5122456;27;27454;-57
2021/01/07 11:50:38;;;;;;;20.20;11.48;;;2.70;96.00;;;;;;5125612;27;27864;-56
2021/01/07 11:53:24;;;;;;;21.38;12.27;;;2.70;96.00;;;;;;5125690;27;27533;-58
2021/01/07 11:56:09;;;;;;;18.58;11.15;;;2.70;96.10;;;;;;5121598;27;27358;-57
2021/01/07 11:58:53;;;;;;;17.67;11.63;;;2.70;96.10;;;;;;5110332;27;27324;-59
2021/01/07 12:01:38;;;;;;;19.27;12.93;;;2.70;96.10;;;;;;5125294;27;27863;-59
2021/01/07 12:04:22;;;;;;;21.35;12.10;;;2.80;96.10;;;;;;5110382;27;27434;-57
2021/01/07 12:07:21;;;;;;;20.63;11.93;;;2.70;96.10;;;;;;5109657;27;27438;-59
2021/01/07 12:10:06;;;;;;;18.33;11.15;;;2.70;96.10;;;;;;5125255;27;27408;-57
2021/01/07 12:13:19;;;;;;;20.45;12.48;;;2.70;96.10;;;;;;5109990;27;27854;-54
2021/01/07 12:16:04;;;;;;;18.55;11.85;;;2.70;96.20;;;;;;5121515;27;27485;-55
2021/01/07 12:18:51;;;;;;;19.88;12.65;;;2.70;96.10;;;;;;5125623;27;27384;-57
2021/01/07 12:21:36;;;;;;;18.52;11.73;;;2.70;96.10;;;;;;5124362;27;27517;-56
2021/01/07 12:24:21;;;;;;;21.45;12.98;;;2.70;96.10;;;;;;5124439;27;27334;-56
2021/01/07 12:27:07;;;;;;;20.58;12.15;;;2.70;96.10;;;;;;5109712;27;27599;-53
2021/01/07 12:29:51;;;;;;;19.10;11.93;;;2.70;96.10;;;;;;5125232;27;27341;-55
2021/01/07 12:32:36;;;;;;;18.40;12.57;;;2.70;96.20;;;;;;5124150;27;27409;-56
2021/01/07 12:35:24;;;;;;;20.17;12.52;;;2.70;96.20;;;;;;5109619;27;27419;-58
2021/01/07 12:38:31;;;;;;;17.65;11.85;;;2.80;96.20;;;;;;5124401;27;27473;-50
2021/01/07 12:41:17;;;;;;;20.05;11.98;;;2.70;96.20;;;;;;5124859;27;27472;-58
2021/01/07 12:44:06;;;;;;;21.20;11.85;;;2.80;96.20;;;;;;5125094;27;27406;-59
2021/01/07 12:46:51;;;;;;;20.58;12.73;;;2.70;96.20;;;;;;5123965;27;27949;-57
2021/01/07 12:49:36;;;;;;;23.10;12.82;;;2.80;96.20;;;;;;5124971;27;27363;-58
2021/01/07 12:52:21;;;;;;;18.70;12.35;;;2.70;96.10;;;;;;5124329;27;27405;-53
2021/01/07 12:55:06;;;;;;;21.40;12.00;;;2.70;96.20;;;;;;5109563;27;27394;-58
2021/01/07 12:58:15;;;;;;;20.45;12.35;;;2.70;96.20;;;;;;5124591;27;27971;-58
2021/01/07 13:01:01;;;;;;;22.38;12.95;;;2.70;96.20;;;;;;5123600;27;27441;-58
2021/01/07 13:03:49;;;;;;;20.70;14.02;;;2.70;96.20;;;;;;5124781;27;27449;-59
2021/01/07 13:06:47;;;;;;;21.15;13.15;;;2.70;96.20;;;;;;5124636;27;27343;-59
2021/01/07 13:09:35;;;;;;;22.85;13.40;;;2.70;96.20;;;;;;5124061;27;27828;-60
2021/01/07 13:12:19;;;;;;;20.15;13.15;;;2.70;96.20;;;;;;5124492;27;27410;-59
2021/01/07 13:15:05;;;;;;;23.50;14.32;;;2.70;96.20;;;;;;5124514;27;27438;-59
2021/01/07 13:17:50;;;;;;;24.58;14.82;;;2.70;96.20;;;;;;5124807;27;27475;-60
2021/01/07 13:20:34;;;;;;;23.38;14.32;;;2.70;96.20;;;;;;5124743;27;28010;-60
2021/01/07 13:23:27;;;;;;;25.15;15.23;;;2.70;96.20;;;;;;5124109;27;27488;-59
2021/01/07 13:26:13;;;;;;;29.95;14.98;;;2.70;96.20;;;;;;5124263;27;27400;-60
2021/01/07 13:28:57;;;;;;;27.75;15.30;;;2.70;96.20;;;;;;5124687;27;27323;-59
2021/01/07 13:31:47;;;;;;;25.23;15.35;;;2.70;96.20;;;;;;5124232;27;27946;-60
2021/01/07 13:34:32;;;;;;;23.65;14.90;;;2.70;96.30;;;;;;5126208;27;27418;-58
2021/01/07 13:37:17;;;;;;;26.15;15.35;;;2.70;96.30;;;;;;5126262;27;27620;-59
2021/01/07 13:40:03;;;;;;;27.92;16.88;;;2.60;96.30;;;;;;5109679;27;27430;-59
2021/01/07 13:42:48;;;;;;;26.15;15.98;;;2.60;96.30;;;;;;5127462;27;27434;-59
2021/01/07 13:45:33;;;;;;;27.52;14.57;;;2.60;96.30;;;;;;5127662;27;27414;-59
2021/01/07 13:48:18;;;;;;;27.50;16.00;;;2.60;96.30;;;;;;5127711;27;27507;-59
2021/01/07 13:51:03;;;;;;;25.90;14.63;;;2.60;96.30;;;;;;5112712;27;27457;-59
2021/01/07 13:53:47;;;;;;;30.23;15.65;;;2.60;96.30;;;;;;5126287;27;27419;-59
2021/01/07 13:56:32;;;;;;;24.10;15.25;;;2.60;96.30;;;;;;5126731;27;27438;-59
2021/01/07 13:59:17;;;;;;;24.92;14.57;;;2.60;96.40;;;;;;5127562;27;27335;-59
2021/01/07 14:02:05;;;;;;;24.70;14.82;;;2.60;96.30;;;;;;5126526;27;27552;-61
2021/01/07 14:04:50;;;;;;;24.10;13.98;;;2.60;96.40;;;;;;5127396;27;27359;-59
2021/01/07 14:07:40;;;;;;;23.30;14.60;;;2.60;96.40;;;;;;5127615;27;27382;-59
2021/01/07 14:10:31;;;;;;;26.75;15.63;;;2.60;96.40;;;;;;5126661;27;27483;-60
2021/01/07 14:13:16;;;;;;;24.60;14.23;;;2.60;96.40;;;;;;5123977;27;27332;-59
2021/01/07 14:16:01;;;;;;;25.92;14.07;;;2.60;96.40;;;;;;5126771;27;27418;-59
2021/01/07 14:18:46;;;;;;;25.10;14.75;;;2.50;96.40;;;;;;5127144;27;27409;-58
2021/01/07 14:21:31;;;;;;;25.30;14.23;;;2.50;96.40;;;;;;5126124;27;27414;-59
2021/01/07 14:24:16;;;;;;;23.90;14.45;;;2.50;96.40;;;;;;5127387;27;27353;-60
2021/01/07 14:27:31;;;;;;;23.90;14.93;;;2.50;96.40;;;;;;5126305;27;27348;-59